sensor_id;sensor_type;location;lat;lon;timestamp;P1;durP1;ratioP1;P2;durP2;ratioP2
68398;SDS011;56258;52.196;13.868;2022-10-14T00:02:20;5.55;;;0.90;;
68398;SDS011;56258;52.196;13.868;2022-10-14T00:04:47;4.55;;;1.10;;
68398;SDS011;56258;52.196;13.868;2022-10-14T00:07:13;4.30;;;1.00;;
68398;SDS011;56258;52.196;13.868;2022-10-14T00:09:40;4.28;;;0.90;;
68398;SDS011;56258;52.196;13.868;2022-10-14T00:12:08;4.18;;;0.90;;
68398;SDS011;56258;52.196;13.868;2022-10-14T00:14:34;3.80;;;0.70;;
68398;SDS011;56258;52.196;13.868;2022-10-14T00:17:01;3.95;;;0.90;;
68398;SDS011;56258;52.196;13.868;2022-10-14T00:19:27;4.47;;;1.13;;
68398;SDS011;56258;52.196;13.868;2022-10-14T00:21:54;4.05;;;0.80;;
68398;SDS011;56258;52.196;13.868;2022-10-14T00:24:20;4.28;;;0.90;;
68398;SDS011;56258;52.196;13.868;2022-10-14T00:26:47;5.68;;;1.35;;
68398;SDS011;56258;52.196;13.868;2022-10-14T00:29:14;4.68;;;1.23;;
68398;SDS011;56258;52.196;13.868;2022-10-14T00:31:44;4.40;;;1.00;;
68398;SDS011;56258;52.196;13.868;2022-10-14T00:34:11;4.05;;;1.05;;
68398;SDS011;56258;52.196;13.868;2022-10-14T00:36:41;4.30;;;1.00;;
68398;SDS011;56258;52.196;13.868;2022-10-14T00:39:08;4.32;;;0.90;;
68398;SDS011;56258;52.196;13.868;2022-10-14T00:41:36;4.82;;;0.88;;
68398;SDS011;56258;52.196;13.868;2022-10-14T00:44:54;4.25;;;0.80;;
68398;SDS011;56258;52.196;13.868;2022-10-14T00:46:53;4.43;;;1.13;;
68398;SDS011;56258;52.196;13.868;2022-10-14T00:49:36;5.15;;;1.00;;
68398;SDS011;56258;52.196;13.868;2022-10-14T00:52:13;3.42;;;0.85;;
68398;SDS011;56258;52.196;13.868;2022-10-14T00:54:49;4.55;;;1.00;;
68398;SDS011;56258;52.196;13.868;2022-10-14T00:57:19;4.50;;;0.93;;
68398;SDS011;56258;52.196;13.868;2022-10-14T00:59:48;3.80;;;0.88;;
68398;SDS011;56258;52.196;13.868;2022-10-14T01:02:14;4.78;;;1.00;;
68398;SDS011;56258;52.196;13.868;2022-10-14T01:04:41;4.93;;;1.05;;
68398;SDS011;56258;52.196;13.868;2022-10-14T01:10:19;4.20;;;1.00;;
68398;SDS011;56258;52.196;13.868;2022-10-14T01:13:01;4.63;;;1.02;;
68398;SDS011;56258;52.196;13.868;2022-10-14T01:32:02;4.63;;;1.05;;
68398;SDS011;56258;52.196;13.868;2022-10-14T01:34:36;5.00;;;1.08;;
68398;SDS011;56258;52.196;13.868;2022-10-14T01:37:10;4.47;;;1.00;;
68398;SDS011;56258;52.196;13.868;2022-10-14T01:39:43;4.80;;;1.30;;
68398;SDS011;56258;52.196;13.868;2022-10-14T01:42:14;6.22;;;1.15;;
68398;SDS011;56258;52.196;13.868;2022-10-14T01:44:47;4.03;;;0.90;;
68398;SDS011;56258;52.196;13.868;2022-10-14T01:47:18;4.55;;;1.05;;
68398;SDS011;56258;52.196;13.868;2022-10-14T01:49:49;4.40;;;0.98;;
68398;SDS011;56258;52.196;13.868;2022-10-14T01:52:24;4.57;;;1.17;;
68398;SDS011;56258;52.196;13.868;2022-10-14T01:54:55;4.60;;;1.30;;
68398;SDS011;56258;52.196;13.868;2022-10-14T01:57:27;4.22;;;1.00;;
68398;SDS011;56258;52.196;13.868;2022-10-14T01:59:56;5.03;;;1.05;;
68398;SDS011;56258;52.196;13.868;2022-10-14T02:02:23;4.57;;;0.80;;
68398;SDS011;56258;52.196;13.868;2022-10-14T02:04:50;4.32;;;0.93;;
68398;SDS011;56258;52.196;13.868;2022-10-14T02:09:55;5.18;;;1.00;;
68398;SDS011;56258;52.196;13.868;2022-10-14T02:20:30;4.47;;;1.10;;
68398;SDS011;56258;52.196;13.868;2022-10-14T02:23:03;5.63;;;1.10;;
68398;SDS011;56258;52.196;13.868;2022-10-14T02:25:36;4.22;;;0.80;;
68398;SDS011;56258;52.196;13.868;2022-10-14T02:28:06;4.10;;;0.95;;
68398;SDS011;56258;52.196;13.868;2022-10-14T02:30:37;4.07;;;0.98;;
68398;SDS011;56258;52.196;13.868;2022-10-14T02:33:10;4.85;;;0.80;;
68398;SDS011;56258;52.196;13.868;2022-10-14T02:35:38;5.28;;;1.13;;
68398;SDS011;56258;52.196;13.868;2022-10-14T02:38:07;4.28;;;1.00;;
68398;SDS011;56258;52.196;13.868;2022-10-14T02:40:36;7.25;;;1.02;;
68398;SDS011;56258;52.196;13.868;2022-10-14T02:43:07;4.25;;;0.88;;
68398;SDS011;56258;52.196;13.868;2022-10-14T02:45:36;4.45;;;1.00;;
68398;SDS011;56258;52.196;13.868;2022-10-14T02:48:04;4.20;;;1.05;;
68398;SDS011;56258;52.196;13.868;2022-10-14T02:50:31;5.07;;;1.00;;
68398;SDS011;56258;52.196;13.868;2022-10-14T02:52:58;5.03;;;1.23;;
68398;SDS011;56258;52.196;13.868;2022-10-14T02:55:25;3.80;;;0.80;;
68398;SDS011;56258;52.196;13.868;2022-10-14T02:57:52;4.22;;;0.93;;
68398;SDS011;56258;52.196;13.868;2022-10-14T03:00:18;4.93;;;1.10;;
68398;SDS011;56258;52.196;13.868;2022-10-14T03:02:46;4.68;;;1.15;;
68398;SDS011;56258;52.196;13.868;2022-10-14T03:05:12;4.65;;;0.90;;
68398;SDS011;56258;52.196;13.868;2022-10-14T03:07:39;4.85;;;1.13;;
68398;SDS011;56258;52.196;13.868;2022-10-14T03:10:06;4.10;;;0.85;;
68398;SDS011;56258;52.196;13.868;2022-10-14T03:12:33;4.40;;;0.93;;
68398;SDS011;56258;52.196;13.868;2022-10-14T03:14:59;4.20;;;0.80;;
68398;SDS011;56258;52.196;13.868;2022-10-14T03:17:26;3.95;;;0.80;;
68398;SDS011;56258;52.196;13.868;2022-10-14T03:19:52;4.13;;;0.85;;
68398;SDS011;56258;52.196;13.868;2022-10-14T03:22:19;4.78;;;0.90;;
68398;SDS011;56258;52.196;13.868;2022-10-14T03:24:46;4.40;;;1.05;;
68398;SDS011;56258;52.196;13.868;2022-10-14T03:27:12;4.60;;;1.13;;
68398;SDS011;56258;52.196;13.868;2022-10-14T03:29:39;4.88;;;0.88;;
68398;SDS011;56258;52.196;13.868;2022-10-14T03:32:06;4.53;;;1.10;;
68398;SDS011;56258;52.196;13.868;2022-10-14T03:34:32;4.05;;;0.85;;
68398;SDS011;56258;52.196;13.868;2022-10-14T03:36:59;4.50;;;1.00;;
68398;SDS011;56258;52.196;13.868;2022-10-14T03:39:26;5.07;;;0.93;;
68398;SDS011;56258;52.196;13.868;2022-10-14T03:41:53;4.45;;;0.90;;
68398;SDS011;56258;52.196;13.868;2022-10-14T03:44:19;4.63;;;1.10;;
68398;SDS011;56258;52.196;13.868;2022-10-14T03:46:46;3.95;;;0.90;;
68398;SDS011;56258;52.196;13.868;2022-10-14T03:49:12;3.95;;;0.80;;
68398;SDS011;56258;52.196;13.868;2022-10-14T03:51:39;4.40;;;1.00;;
68398;SDS011;56258;52.196;13.868;2022-10-14T03:54:06;4.18;;;0.90;;
68398;SDS011;56258;52.196;13.868;2022-10-14T03:56:32;4.40;;;1.00;;
68398;SDS011;56258;52.196;13.868;2022-10-14T03:58:59;4.70;;;0.93;;
68398;SDS011;56258;52.196;13.868;2022-10-14T04:01:25;4.97;;;0.90;;
68398;SDS011;56258;52.196;13.868;2022-10-14T04:03:52;5.30;;;1.02;;
68398;SDS011;56258;52.196;13.868;2022-10-14T04:06:19;5.03;;;0.82;;
68398;SDS011;56258;52.196;13.868;2022-10-14T04:08:45;4.40;;;0.90;;
68398;SDS011;56258;52.196;13.868;2022-10-14T04:11:12;5.15;;;0.95;;
68398;SDS011;56258;52.196;13.868;2022-10-14T04:13:39;4.13;;;0.90;;
68398;SDS011;56258;52.196;13.868;2022-10-14T04:16:06;4.88;;;1.00;;
68398;SDS011;56258;52.196;13.868;2022-10-14T04:18:35;3.97;;;0.80;;
68398;SDS011;56258;52.196;13.868;2022-10-14T04:21:03;4.00;;;0.90;;
68398;SDS011;56258;52.196;13.868;2022-10-14T04:23:32;3.97;;;0.93;;
68398;SDS011;56258;52.196;13.868;2022-10-14T04:26:01;3.80;;;0.80;;
68398;SDS011;56258;52.196;13.868;2022-10-14T04:28:30;3.90;;;0.85;;
68398;SDS011;56258;52.196;13.868;2022-10-14T04:30:57;4.35;;;1.00;;
68398;SDS011;56258;52.196;13.868;2022-10-14T04:33:24;4.85;;;1.00;;
68398;SDS011;56258;52.196;13.868;2022-10-14T04:35:58;4.32;;;0.98;;
68398;SDS011;56258;52.196;13.868;2022-10-14T04:38:26;4.47;;;1.08;;
68398;SDS011;56258;52.196;13.868;2022-10-14T04:40:53;4.13;;;0.93;;
68398;SDS011;56258;52.196;13.868;2022-10-14T04:43:20;4.72;;;1.00;;
68398;SDS011;56258;52.196;13.868;2022-10-14T04:45:47;4.50;;;1.10;;
68398;SDS011;56258;52.196;13.868;2022-10-14T04:48:14;4.15;;;0.98;;
68398;SDS011;56258;52.196;13.868;2022-10-14T04:50:41;4.20;;;0.90;;
68398;SDS011;56258;52.196;13.868;2022-10-14T04:53:07;4.35;;;0.85;;
68398;SDS011;56258;52.196;13.868;2022-10-14T04:55:39;5.07;;;0.90;;
68398;SDS011;56258;52.196;13.868;2022-10-14T04:58:05;4.80;;;0.90;;
68398;SDS011;56258;52.196;13.868;2022-10-14T05:00:32;4.35;;;0.85;;
68398;SDS011;56258;52.196;13.868;2022-10-14T05:02:59;4.93;;;1.00;;
68398;SDS011;56258;52.196;13.868;2022-10-14T05:05:25;4.47;;;0.90;;
68398;SDS011;56258;52.196;13.868;2022-10-14T05:07:52;4.60;;;1.20;;
68398;SDS011;56258;52.196;13.868;2022-10-14T05:10:19;4.97;;;1.35;;
68398;SDS011;56258;52.196;13.868;2022-10-14T05:12:45;4.93;;;1.08;;
68398;SDS011;56258;52.196;13.868;2022-10-14T05:15:13;3.75;;;0.80;;
68398;SDS011;56258;52.196;13.868;2022-10-14T05:17:40;4.72;;;1.13;;
68398;SDS011;56258;52.196;13.868;2022-10-14T05:20:10;4.07;;;0.98;;
68398;SDS011;56258;52.196;13.868;2022-10-14T05:22:37;4.93;;;1.20;;
68398;SDS011;56258;52.196;13.868;2022-10-14T05:25:04;4.82;;;0.95;;
68398;SDS011;56258;52.196;13.868;2022-10-14T05:27:31;4.82;;;1.17;;
68398;SDS011;56258;52.196;13.868;2022-10-14T05:29:58;4.10;;;1.00;;
68398;SDS011;56258;52.196;13.868;2022-10-14T05:32:24;4.60;;;1.10;;
68398;SDS011;56258;52.196;13.868;2022-10-14T05:34:51;4.72;;;1.10;;
68398;SDS011;56258;52.196;13.868;2022-10-14T05:37:18;5.93;;;1.25;;
68398;SDS011;56258;52.196;13.868;2022-10-14T05:39:44;4.05;;;0.82;;
68398;SDS011;56258;52.196;13.868;2022-10-14T05:42:11;4.38;;;0.90;;
68398;SDS011;56258;52.196;13.868;2022-10-14T05:44:38;4.57;;;1.00;;
68398;SDS011;56258;52.196;13.868;2022-10-14T05:47:04;5.03;;;1.00;;
68398;SDS011;56258;52.196;13.868;2022-10-14T05:49:31;4.43;;;0.82;;
68398;SDS011;56258;52.196;13.868;2022-10-14T05:51:58;4.57;;;1.02;;
68398;SDS011;56258;52.196;13.868;2022-10-14T05:54:24;4.00;;;0.80;;
68398;SDS011;56258;52.196;13.868;2022-10-14T05:56:51;4.07;;;0.93;;
68398;SDS011;56258;52.196;13.868;2022-10-14T05:59:17;4.30;;;1.10;;
68398;SDS011;56258;52.196;13.868;2022-10-14T06:01:44;4.22;;;0.82;;
68398;SDS011;56258;52.196;13.868;2022-10-14T06:04:18;4.78;;;1.00;;
68398;SDS011;56258;52.196;13.868;2022-10-14T06:06:45;4.60;;;1.00;;
68398;SDS011;56258;52.196;13.868;2022-10-14T06:09:12;4.53;;;1.00;;
68398;SDS011;56258;52.196;13.868;2022-10-14T06:11:39;4.60;;;1.02;;
68398;SDS011;56258;52.196;13.868;2022-10-14T06:14:06;4.72;;;1.23;;
68398;SDS011;56258;52.196;13.868;2022-10-14T06:16:33;4.72;;;1.10;;
68398;SDS011;56258;52.196;13.868;2022-10-14T06:19:00;5.22;;;1.00;;
68398;SDS011;56258;52.196;13.868;2022-10-14T06:21:26;5.20;;;1.08;;
68398;SDS011;56258;52.196;13.868;2022-10-14T06:23:53;4.15;;;0.82;;
68398;SDS011;56258;52.196;13.868;2022-10-14T06:26:20;5.18;;;1.45;;
68398;SDS011;56258;52.196;13.868;2022-10-14T06:28:46;4.65;;;1.20;;
68398;SDS011;56258;52.196;13.868;2022-10-14T06:31:13;4.80;;;1.20;;
68398;SDS011;56258;52.196;13.868;2022-10-14T06:33:40;8.00;;;1.00;;
68398;SDS011;56258;52.196;13.868;2022-10-14T06:36:08;5.57;;;1.15;;
68398;SDS011;56258;52.196;13.868;2022-10-14T06:38:35;4.72;;;1.05;;
68398;SDS011;56258;52.196;13.868;2022-10-14T06:41:02;5.32;;;1.02;;
68398;SDS011;56258;52.196;13.868;2022-10-14T06:43:29;5.00;;;1.10;;
68398;SDS011;56258;52.196;13.868;2022-10-14T06:45:56;5.70;;;1.20;;
68398;SDS011;56258;52.196;13.868;2022-10-14T06:48:23;3.90;;;0.90;;
68398;SDS011;56258;52.196;13.868;2022-10-14T06:50:50;4.80;;;1.20;;
68398;SDS011;56258;52.196;13.868;2022-10-14T06:53:17;4.70;;;1.33;;
68398;SDS011;56258;52.196;13.868;2022-10-14T06:55:44;4.55;;;1.20;;
68398;SDS011;56258;52.196;13.868;2022-10-14T06:58:11;4.60;;;1.13;;
68398;SDS011;56258;52.196;13.868;2022-10-14T07:00:37;5.05;;;1.00;;
68398;SDS011;56258;52.196;13.868;2022-10-14T07:03:07;5.18;;;1.17;;
68398;SDS011;56258;52.196;13.868;2022-10-14T07:05:34;4.63;;;1.10;;
68398;SDS011;56258;52.196;13.868;2022-10-14T07:08:01;4.85;;;1.40;;
68398;SDS011;56258;52.196;13.868;2022-10-14T07:10:27;4.47;;;1.10;;
68398;SDS011;56258;52.196;13.868;2022-10-14T07:12:54;6.07;;;1.10;;
68398;SDS011;56258;52.196;13.868;2022-10-14T07:15:21;4.50;;;1.27;;
68398;SDS011;56258;52.196;13.868;2022-10-14T07:17:48;4.72;;;0.82;;
68398;SDS011;56258;52.196;13.868;2022-10-14T07:20:15;4.85;;;0.90;;
68398;SDS011;56258;52.196;13.868;2022-10-14T07:22:41;5.95;;;1.33;;
68398;SDS011;56258;52.196;13.868;2022-10-14T07:25:08;4.03;;;1.00;;
68398;SDS011;56258;52.196;13.868;2022-10-14T07:27:35;4.82;;;1.10;;
68398;SDS011;56258;52.196;13.868;2022-10-14T07:30:03;5.82;;;1.10;;
68398;SDS011;56258;52.196;13.868;2022-10-14T07:32:30;4.72;;;1.15;;
68398;SDS011;56258;52.196;13.868;2022-10-14T07:34:59;4.75;;;1.27;;
68398;SDS011;56258;52.196;13.868;2022-10-14T07:37:26;4.85;;;1.10;;
68398;SDS011;56258;52.196;13.868;2022-10-14T07:39:52;4.97;;;1.30;;
68398;SDS011;56258;52.196;13.868;2022-10-14T07:42:19;6.80;;;1.30;;
68398;SDS011;56258;52.196;13.868;2022-10-14T07:44:50;5.43;;;1.20;;
68398;SDS011;56258;52.196;13.868;2022-10-14T07:47:19;5.28;;;1.40;;
68398;SDS011;56258;52.196;13.868;2022-10-14T07:49:46;4.43;;;1.10;;
68398;SDS011;56258;52.196;13.868;2022-10-14T07:52:13;5.75;;;1.20;;
68398;SDS011;56258;52.196;13.868;2022-10-14T07:54:40;4.72;;;1.38;;
68398;SDS011;56258;52.196;13.868;2022-10-14T07:57:07;4.30;;;1.20;;
68398;SDS011;56258;52.196;13.868;2022-10-14T07:59:34;4.80;;;1.30;;
68398;SDS011;56258;52.196;13.868;2022-10-14T08:02:00;4.90;;;1.27;;
68398;SDS011;56258;52.196;13.868;2022-10-14T08:04:27;4.90;;;1.40;;
68398;SDS011;56258;52.196;13.868;2022-10-14T08:06:54;5.15;;;1.23;;
68398;SDS011;56258;52.196;13.868;2022-10-14T08:09:20;4.70;;;1.40;;
68398;SDS011;56258;52.196;13.868;2022-10-14T08:11:47;5.28;;;1.60;;
68398;SDS011;56258;52.196;13.868;2022-10-14T08:14:14;5.25;;;1.50;;
68398;SDS011;56258;52.196;13.868;2022-10-14T08:16:41;5.10;;;1.33;;
68398;SDS011;56258;52.196;13.868;2022-10-14T08:19:09;5.50;;;1.50;;
68398;SDS011;56258;52.196;13.868;2022-10-14T08:21:40;5.85;;;1.67;;
68398;SDS011;56258;52.196;13.868;2022-10-14T08:24:08;5.43;;;1.73;;
68398;SDS011;56258;52.196;13.868;2022-10-14T08:26:36;5.05;;;1.50;;
68398;SDS011;56258;52.196;13.868;2022-10-14T08:29:05;5.70;;;1.60;;
68398;SDS011;56258;52.196;13.868;2022-10-14T08:31:34;4.95;;;1.45;;
68398;SDS011;56258;52.196;13.868;2022-10-14T08:34:01;5.72;;;1.90;;
68398;SDS011;56258;52.196;13.868;2022-10-14T08:36:28;5.05;;;1.48;;
68398;SDS011;56258;52.196;13.868;2022-10-14T08:38:55;5.47;;;1.55;;
68398;SDS011;56258;52.196;13.868;2022-10-14T08:49:27;4.90;;;1.15;;
68398;SDS011;56258;52.196;13.868;2022-10-14T08:52:02;5.30;;;1.60;;
68398;SDS011;56258;52.196;13.868;2022-10-14T08:54:38;5.30;;;1.40;;
68398;SDS011;56258;52.196;13.868;2022-10-14T08:57:13;5.10;;;1.50;;
68398;SDS011;56258;52.196;13.868;2022-10-14T08:59:43;4.70;;;1.35;;
68398;SDS011;56258;52.196;13.868;2022-10-14T09:02:14;4.60;;;1.38;;
68398;SDS011;56258;52.196;13.868;2022-10-14T09:05:04;4.97;;;1.33;;
68398;SDS011;56258;52.196;13.868;2022-10-14T09:07:32;6.25;;;1.63;;
68398;SDS011;56258;52.196;13.868;2022-10-14T09:10:09;6.25;;;1.73;;
68398;SDS011;56258;52.196;13.868;2022-10-14T09:12:39;7.32;;;1.67;;
68398;SDS011;56258;52.196;13.868;2022-10-14T09:15:51;5.63;;;1.30;;
68398;SDS011;56258;52.196;13.868;2022-10-14T09:18:04;5.88;;;1.50;;
68398;SDS011;56258;52.196;13.868;2022-10-14T09:20:39;5.50;;;1.20;;
68398;SDS011;56258;52.196;13.868;2022-10-14T09:23:17;5.25;;;1.23;;
68398;SDS011;56258;52.196;13.868;2022-10-14T09:25:55;5.95;;;1.50;;
68398;SDS011;56258;52.196;13.868;2022-10-14T09:28:37;6.75;;;1.58;;
68398;SDS011;56258;52.196;13.868;2022-10-14T09:31:07;6.00;;;1.85;;
68398;SDS011;56258;52.196;13.868;2022-10-14T09:33:37;5.57;;;1.55;;
68398;SDS011;56258;52.196;13.868;2022-10-14T09:36:20;5.15;;;1.38;;
68398;SDS011;56258;52.196;13.868;2022-10-14T09:38:47;6.18;;;1.65;;
68398;SDS011;56258;52.196;13.868;2022-10-14T09:41:23;5.40;;;1.70;;
68398;SDS011;56258;52.196;13.868;2022-10-14T09:46:47;5.28;;;1.75;;
68398;SDS011;56258;52.196;13.868;2022-10-14T09:49:24;4.85;;;1.70;;
68398;SDS011;56258;52.196;13.868;2022-10-14T09:51:59;5.20;;;1.92;;
68398;SDS011;56258;52.196;13.868;2022-10-14T09:54:28;4.83;;;1.53;;
68398;SDS011;56258;52.196;13.868;2022-10-14T09:56:57;4.97;;;2.00;;
68398;SDS011;56258;52.196;13.868;2022-10-14T09:59:27;4.90;;;1.80;;
68398;SDS011;56258;52.196;13.868;2022-10-14T10:01:58;4.47;;;1.70;;
68398;SDS011;56258;52.196;13.868;2022-10-14T10:04:39;5.63;;;1.80;;
68398;SDS011;56258;52.196;13.868;2022-10-14T10:07:43;5.13;;;1.77;;
68398;SDS011;56258;52.196;13.868;2022-10-14T10:10:15;5.80;;;1.77;;
68398;SDS011;56258;52.196;13.868;2022-10-14T10:12:43;5.43;;;1.83;;
68398;SDS011;56258;52.196;13.868;2022-10-14T10:15:16;5.45;;;2.05;;
68398;SDS011;56258;52.196;13.868;2022-10-14T10:17:47;5.95;;;1.98;;
68398;SDS011;56258;52.196;13.868;2022-10-14T10:23:16;5.72;;;1.85;;
68398;SDS011;56258;52.196;13.868;2022-10-14T10:25:50;4.90;;;1.50;;
68398;SDS011;56258;52.196;13.868;2022-10-14T10:28:20;5.22;;;1.60;;
68398;SDS011;56258;52.196;13.868;2022-10-14T10:34:11;5.47;;;1.47;;
68398;SDS011;56258;52.196;13.868;2022-10-14T10:36:27;5.70;;;1.40;;
68398;SDS011;56258;52.196;13.868;2022-10-14T10:39:02;6.10;;;1.38;;
68398;SDS011;56258;52.196;13.868;2022-10-14T10:44:24;4.95;;;1.40;;
68398;SDS011;56258;52.196;13.868;2022-10-14T10:47:15;5.00;;;1.50;;
68398;SDS011;56258;52.196;13.868;2022-10-14T10:49:59;5.18;;;1.80;;
68398;SDS011;56258;52.196;13.868;2022-10-14T10:55:33;4.60;;;1.40;;
68398;SDS011;56258;52.196;13.868;2022-10-14T11:01:15;4.60;;;1.30;;
68398;SDS011;56258;52.196;13.868;2022-10-14T11:06:32;5.47;;;1.50;;
68398;SDS011;56258;52.196;13.868;2022-10-14T11:12:57;4.55;;;1.30;;
68398;SDS011;56258;52.196;13.868;2022-10-14T11:29:42;5.03;;;1.40;;
68398;SDS011;56258;52.196;13.868;2022-10-14T11:34:51;5.00;;;1.40;;
68398;SDS011;56258;52.196;13.868;2022-10-14T11:46:03;5.32;;;1.35;;
68398;SDS011;56258;52.196;13.868;2022-10-14T11:48:36;5.78;;;1.50;;
68398;SDS011;56258;52.196;13.868;2022-10-14T11:51:15;5.43;;;1.20;;
68398;SDS011;56258;52.196;13.868;2022-10-14T12:02:18;6.07;;;1.13;;
68398;SDS011;56258;52.196;13.868;2022-10-14T12:07:38;4.63;;;1.23;;
68398;SDS011;56258;52.196;13.868;2022-10-14T12:10:19;4.53;;;1.30;;
68398;SDS011;56258;52.196;13.868;2022-10-14T12:12:52;4.45;;;1.10;;
68398;SDS011;56258;52.196;13.868;2022-10-14T12:15:20;4.60;;;1.30;;
68398;SDS011;56258;52.196;13.868;2022-10-14T12:23:46;4.72;;;1.27;;
68398;SDS011;56258;52.196;13.868;2022-10-14T12:28:59;4.82;;;1.10;;
68398;SDS011;56258;52.196;13.868;2022-10-14T12:31:33;4.30;;;0.98;;
68398;SDS011;56258;52.196;13.868;2022-10-14T12:36:42;6.32;;;1.13;;
68398;SDS011;56258;52.196;13.868;2022-10-14T12:41:53;5.70;;;1.40;;
68398;SDS011;56258;52.196;13.868;2022-10-14T12:44:36;5.40;;;1.27;;
68398;SDS011;56258;52.196;13.868;2022-10-14T12:47:16;4.93;;;1.00;;
68398;SDS011;56258;52.196;13.868;2022-10-14T12:49:45;5.83;;;1.43;;
68398;SDS011;56258;52.196;13.868;2022-10-14T12:52:17;5.55;;;1.05;;
68398;SDS011;56258;52.196;13.868;2022-10-14T12:54:47;4.75;;;1.00;;
68398;SDS011;56258;52.196;13.868;2022-10-14T12:57:24;4.75;;;1.27;;
68398;SDS011;56258;52.196;13.868;2022-10-14T12:59:55;5.07;;;1.10;;
68398;SDS011;56258;52.196;13.868;2022-10-14T13:02:29;5.68;;;1.05;;
68398;SDS011;56258;52.196;13.868;2022-10-14T13:05:01;4.30;;;1.00;;
68398;SDS011;56258;52.196;13.868;2022-10-14T13:07:55;4.32;;;1.00;;
68398;SDS011;56258;52.196;13.868;2022-10-14T13:10:40;4.50;;;1.00;;
68398;SDS011;56258;52.196;13.868;2022-10-14T13:18:49;4.85;;;0.80;;
68398;SDS011;56258;52.196;13.868;2022-10-14T13:23:57;3.83;;;0.90;;
68398;SDS011;56258;52.196;13.868;2022-10-14T13:42:55;4.80;;;1.00;;
68398;SDS011;56258;52.196;13.868;2022-10-14T13:45:29;4.45;;;1.13;;
68398;SDS011;56258;52.196;13.868;2022-10-14T13:48:04;4.93;;;1.20;;
68398;SDS011;56258;52.196;13.868;2022-10-14T13:50:35;4.20;;;0.90;;
68398;SDS011;56258;52.196;13.868;2022-10-14T13:53:04;4.63;;;1.00;;
68398;SDS011;56258;52.196;13.868;2022-10-14T13:55:44;4.60;;;1.10;;
68398;SDS011;56258;52.196;13.868;2022-10-14T13:58:20;4.18;;;1.00;;
68398;SDS011;56258;52.196;13.868;2022-10-14T14:00:57;3.78;;;0.85;;
68398;SDS011;56258;52.196;13.868;2022-10-14T14:03:29;4.82;;;0.90;;
68398;SDS011;56258;52.196;13.868;2022-10-14T14:05:59;4.50;;;0.80;;
68398;SDS011;56258;52.196;13.868;2022-10-14T14:08:28;3.87;;;0.90;;
68398;SDS011;56258;52.196;13.868;2022-10-14T14:11:06;3.63;;;0.82;;
68398;SDS011;56258;52.196;13.868;2022-10-14T14:14:02;5.55;;;1.38;;
68398;SDS011;56258;52.196;13.868;2022-10-14T14:16:54;4.00;;;0.80;;
68398;SDS011;56258;52.196;13.868;2022-10-14T14:19:24;3.60;;;0.90;;
68398;SDS011;56258;52.196;13.868;2022-10-14T14:24:41;3.90;;;0.98;;
68398;SDS011;56258;52.196;13.868;2022-10-14T14:27:09;3.90;;;0.82;;
68398;SDS011;56258;52.196;13.868;2022-10-14T14:29:40;3.88;;;0.90;;
68398;SDS011;56258;52.196;13.868;2022-10-14T14:32:15;5.88;;;0.90;;
68398;SDS011;56258;52.196;13.868;2022-10-14T14:34:44;4.23;;;0.93;;
68398;SDS011;56258;52.196;13.868;2022-10-14T14:37:14;3.85;;;0.70;;
68398;SDS011;56258;52.196;13.868;2022-10-14T14:40:17;3.85;;;0.75;;
68398;SDS011;56258;52.196;13.868;2022-10-14T14:42:57;4.53;;;0.90;;
68398;SDS011;56258;52.196;13.868;2022-10-14T14:45:30;3.95;;;0.70;;
68398;SDS011;56258;52.196;13.868;2022-10-14T14:48:03;4.03;;;0.80;;
68398;SDS011;56258;52.196;13.868;2022-10-14T14:50:38;3.25;;;0.65;;
68398;SDS011;56258;52.196;13.868;2022-10-14T14:53:13;4.53;;;0.80;;
68398;SDS011;56258;52.196;13.868;2022-10-14T15:00:57;3.77;;;0.70;;
68398;SDS011;56258;52.196;13.868;2022-10-14T15:03:25;3.75;;;0.80;;
68398;SDS011;56258;52.196;13.868;2022-10-14T15:05:55;3.65;;;0.70;;
68398;SDS011;56258;52.196;13.868;2022-10-14T15:08:25;3.72;;;0.70;;
68398;SDS011;56258;52.196;13.868;2022-10-14T15:10:54;3.47;;;0.68;;
68398;SDS011;56258;52.196;13.868;2022-10-14T15:13:24;3.80;;;0.80;;
68398;SDS011;56258;52.196;13.868;2022-10-14T15:16:03;3.38;;;0.50;;
68398;SDS011;56258;52.196;13.868;2022-10-14T15:18:31;4.80;;;0.75;;
68398;SDS011;56258;52.196;13.868;2022-10-14T15:21:14;3.88;;;0.80;;
68398;SDS011;56258;52.196;13.868;2022-10-14T15:23:56;3.53;;;0.70;;
68398;SDS011;56258;52.196;13.868;2022-10-14T15:29:03;3.35;;;0.70;;
68398;SDS011;56258;52.196;13.868;2022-10-14T15:31:42;3.95;;;0.60;;
68398;SDS011;56258;52.196;13.868;2022-10-14T15:34:13;3.88;;;0.90;;
68398;SDS011;56258;52.196;13.868;2022-10-14T15:36:42;3.75;;;0.63;;
68398;SDS011;56258;52.196;13.868;2022-10-14T15:39:12;3.33;;;0.63;;
68398;SDS011;56258;52.196;13.868;2022-10-14T15:41:39;3.58;;;0.60;;
68398;SDS011;56258;52.196;13.868;2022-10-14T15:44:07;3.95;;;0.70;;
68398;SDS011;56258;52.196;13.868;2022-10-14T15:46:34;3.33;;;0.70;;
68398;SDS011;56258;52.196;13.868;2022-10-14T15:52:16;4.18;;;0.60;;
68398;SDS011;56258;52.196;13.868;2022-10-14T15:54:46;3.70;;;0.70;;
68398;SDS011;56258;52.196;13.868;2022-10-14T15:57:14;3.85;;;0.60;;
68398;SDS011;56258;52.196;13.868;2022-10-14T15:59:42;3.33;;;0.70;;
68398;SDS011;56258;52.196;13.868;2022-10-14T16:02:20;4.18;;;0.80;;
68398;SDS011;56258;52.196;13.868;2022-10-14T16:04:51;3.93;;;0.70;;
68398;SDS011;56258;52.196;13.868;2022-10-14T16:07:39;3.95;;;0.90;;
68398;SDS011;56258;52.196;13.868;2022-10-14T16:10:06;4.75;;;0.80;;
68398;SDS011;56258;52.196;13.868;2022-10-14T16:12:34;3.70;;;0.68;;
68398;SDS011;56258;52.196;13.868;2022-10-14T16:15:01;3.90;;;0.60;;
68398;SDS011;56258;52.196;13.868;2022-10-14T16:17:28;3.83;;;0.82;;
68398;SDS011;56258;52.196;13.868;2022-10-14T16:19:57;3.13;;;0.57;;
68398;SDS011;56258;52.196;13.868;2022-10-14T16:22:23;3.58;;;0.60;;
68398;SDS011;56258;52.196;13.868;2022-10-14T16:24:50;3.53;;;0.60;;
68398;SDS011;56258;52.196;13.868;2022-10-14T16:27:16;3.25;;;0.85;;
68398;SDS011;56258;52.196;13.868;2022-10-14T16:29:44;4.30;;;0.80;;
68398;SDS011;56258;52.196;13.868;2022-10-14T16:32:11;4.10;;;0.50;;
68398;SDS011;56258;52.196;13.868;2022-10-14T16:34:38;3.60;;;0.80;;
68398;SDS011;56258;52.196;13.868;2022-10-14T16:37:05;4.03;;;0.70;;
68398;SDS011;56258;52.196;13.868;2022-10-14T16:39:32;3.70;;;0.70;;
68398;SDS011;56258;52.196;13.868;2022-10-14T16:41:58;3.75;;;0.80;;
68398;SDS011;56258;52.196;13.868;2022-10-14T16:44:25;3.97;;;0.65;;
68398;SDS011;56258;52.196;13.868;2022-10-14T16:46:53;3.30;;;0.60;;
68398;SDS011;56258;52.196;13.868;2022-10-14T16:49:39;3.92;;;0.63;;
68398;SDS011;56258;52.196;13.868;2022-10-14T16:52:07;4.32;;;0.60;;
68398;SDS011;56258;52.196;13.868;2022-10-14T16:54:34;3.22;;;0.50;;
68398;SDS011;56258;52.196;13.868;2022-10-14T16:57:02;3.40;;;0.57;;
68398;SDS011;56258;52.196;13.868;2022-10-14T16:59:29;4.30;;;0.70;;
68398;SDS011;56258;52.196;13.868;2022-10-14T17:01:56;3.25;;;0.70;;
68398;SDS011;56258;52.196;13.868;2022-10-14T17:04:23;2.65;;;0.50;;
68398;SDS011;56258;52.196;13.868;2022-10-14T17:06:50;3.53;;;0.60;;
68398;SDS011;56258;52.196;13.868;2022-10-14T17:09:17;3.25;;;0.57;;
68398;SDS011;56258;52.196;13.868;2022-10-14T17:11:44;3.15;;;0.50;;
68398;SDS011;56258;52.196;13.868;2022-10-14T17:14:13;3.13;;;0.50;;
68398;SDS011;56258;52.196;13.868;2022-10-14T17:16:41;3.92;;;0.60;;
68398;SDS011;56258;52.196;13.868;2022-10-14T17:19:08;3.83;;;0.80;;
68398;SDS011;56258;52.196;13.868;2022-10-14T17:21:36;3.13;;;0.50;;
68398;SDS011;56258;52.196;13.868;2022-10-14T17:24:04;3.50;;;0.50;;